createdAt,value
2023-04-11T00:02:46.220Z,66.61
2023-04-11T00:07:47.921Z,57.71
2023-04-11T00:12:49.392Z,54.08
2023-04-11T00:17:50.900Z,58.64
2023-04-11T00:22:53.459Z,59.89
2023-04-11T00:27:55.037Z,60.60
2023-04-11T00:32:56.523Z,73.00
2023-04-11T00:37:58.184Z,62.62
2023-04-11T00:42:59.958Z,54.30
2023-04-11T00:48:01.985Z,57.94
2023-04-11T00:53:03.707Z,60.26
2023-04-11T00:58:06.851Z,61.71
2023-04-11T01:03:08.725Z,72.97
2023-04-11T01:08:11.236Z,62.52
2023-04-11T01:13:12.768Z,54.63
2023-04-11T01:18:14.951Z,57.21
2023-04-11T01:23:23.897Z,59.20
2023-04-11T01:28:25.675Z,69.00
2023-04-11T01:33:27.352Z,64.02
2023-04-11T01:38:29.038Z,55.46
2023-04-11T01:43:30.594Z,57.25
2023-04-11T01:48:33.774Z,68.33
2023-04-11T01:53:35.270Z,58.86
2023-04-11T01:58:36.756Z,58.26
2023-04-11T02:03:39.012Z,66.08
2023-04-11T02:08:40.606Z,55.64
2023-04-11T02:13:42.093Z,58.38
2023-04-11T02:18:45.075Z,66.13
2023-04-11T02:23:46.549Z,57.01
2023-04-11T02:28:48.023Z,56.89
2023-04-11T02:33:49.613Z,64.86
2023-04-11T02:38:51.075Z,61.28
2023-04-11T02:43:53.506Z,55.26
2023-04-11T02:48:55.548Z,60.05
2023-04-11T02:53:57.234Z,71.15
2023-04-11T02:58:58.986Z,64.35
2023-04-11T03:04:00.924Z,56.81
2023-04-11T03:09:03.429Z,61.21
2023-04-11T03:14:05.037Z,68.07
2023-04-11T03:19:06.715Z,57.41
2023-04-11T03:24:08.386Z,58.32
2023-04-11T03:29:09.860Z,63.00
2023-04-11T03:34:11.347Z,68.11
2023-04-11T03:39:12.799Z,57.37
2023-04-11T03:44:14.800Z,58.40
2023-04-11T03:49:16.250Z,67.32
2023-04-11T03:54:17.729Z,57.93
2023-04-11T03:59:19.399Z,57.71
2023-04-11T04:04:21.036Z,63.20
2023-04-11T04:09:23.626Z,69.28
2023-04-11T04:14:25.139Z,57.91
2023-04-11T04:19:26.628Z,57.84
2023-04-11T04:24:28.991Z,64.99
2023-04-11T04:29:37.428Z,62.22
2023-04-11T04:34:46.380Z,55.35
2023-04-11T04:39:50.523Z,59.94
2023-04-11T04:44:53.625Z,67.55
2023-04-11T04:49:56.006Z,57.14
2023-04-11T04:54:57.924Z,56.69
2023-04-11T04:59:59.459Z,60.08
2023-04-11T05:05:03.493Z,68.93
2023-04-11T05:10:05.743Z,58.15
2023-04-11T05:15:10.978Z,56.05
2023-04-11T05:20:13.021Z,58.42
2023-04-11T05:25:14.515Z,67.63
2023-04-11T05:30:16.258Z,57.35
2023-04-11T05:35:17.686Z,56.31
2023-04-11T05:40:19.202Z,59.65
2023-04-11T05:45:20.671Z,65.92
2023-04-11T05:50:22.353Z,56.61
2023-04-11T05:55:23.814Z,55.28
2023-04-11T06:00:27.930Z,58.98
2023-04-11T06:05:30.852Z,67.30
2023-04-11T06:10:32.523Z,57.09
2023-04-11T06:15:34.175Z,53.84
2023-04-11T06:20:35.768Z,56.34
2023-04-11T06:25:38.073Z,64.19
2023-04-11T06:30:41.785Z,55.49
2023-04-11T06:35:44.758Z,53.80
2023-04-11T06:40:49.019Z,57.57
2023-04-11T06:45:52.265Z,59.38
2023-04-11T06:50:55.138Z,67.27
2023-04-11T06:55:59.882Z,54.42
2023-04-11T07:01:02.801Z,55.68
2023-04-11T07:06:07.550Z,57.70
2023-04-11T07:11:10.643Z,64.81
2023-04-11T07:16:13.494Z,54.83
2023-04-11T07:21:16.352Z,54.11
2023-04-11T07:26:19.256Z,56.20
2023-04-11T07:31:23.047Z,62.34
2023-04-11T07:36:29.055Z,53.53
2023-04-11T07:41:31.902Z,53.15
2023-04-11T07:46:34.791Z,57.88
2023-04-11T07:51:37.857Z,60.00
2023-04-11T07:56:41.061Z,61.43
2023-04-11T08:01:43.900Z,57.69
2023-04-11T08:06:46.854Z,51.93
2023-04-11T08:11:49.784Z,56.36
2023-04-11T08:16:53.274Z,58.25
2023-04-11T08:21:56.582Z,58.71
2023-04-11T08:26:59.837Z,59.28
2023-04-11T08:32:03.040Z,58.75
2023-04-11T08:37:05.846Z,58.16
2023-04-11T08:42:21.348Z,58.54
2023-04-11T08:47:24.693Z,58.90
2023-04-11T08:52:28.936Z,58.35
2023-04-11T08:57:31.928Z,56.64
2023-04-11T09:02:35.221Z,55.47
2023-04-11T09:07:50.437Z,54.87
2023-04-11T09:12:54.427Z,55.96
2023-04-11T09:18:00.596Z,54.62
2023-04-11T09:23:03.951Z,55.11
2023-04-11T09:28:10.920Z,53.56
2023-04-11T09:33:24.951Z,52.88
2023-04-11T09:38:29.334Z,52.19
2023-04-11T09:43:53.826Z,50.42
2023-04-11T09:48:57.581Z,52.25
2023-04-11T09:54:02.306Z,51.32
2023-04-11T09:59:05.673Z,51.10
2023-04-11T10:04:11.145Z,50.50
2023-04-11T10:09:16.117Z,51.23
2023-04-11T10:14:38.949Z,51.50
2023-04-11T10:19:43.816Z,49.55
2023-04-11T10:25:19.032Z,50.05
2023-04-11T10:30:40.303Z,49.71
2023-04-11T10:36:12.437Z,49.60
2023-04-11T10:41:18.992Z,48.94
2023-04-11T10:46:23.731Z,48.91
2023-04-11T10:51:28.211Z,48.97
2023-04-11T10:56:40.364Z,48.64
2023-04-11T11:01:57.189Z,48.83
2023-04-11T11:07:04.513Z,48.89
2023-04-11T11:12:15.566Z,48.91
2023-04-11T11:17:18.485Z,48.10
2023-04-11T11:22:28.711Z,47.72
2023-04-11T11:27:31.745Z,47.06
2023-04-11T11:32:34.769Z,48.44
2023-04-11T11:37:38.029Z,48.23
2023-04-11T11:42:41.724Z,47.71
2023-04-11T11:47:47.175Z,46.79
2023-04-11T11:52:51.452Z,46.43
2023-04-11T11:57:54.399Z,46.59
2023-04-11T12:02:59.761Z,46.78
2023-04-11T12:08:05.362Z,46.83
2023-04-11T12:13:36.382Z,46.73
2023-04-11T12:18:42.345Z,46.58
2023-04-11T12:23:45.772Z,47.01
2023-04-11T12:28:50.324Z,47.04
2023-04-11T12:33:53.325Z,46.78
2023-04-11T12:38:56.958Z,46.82
2023-04-11T12:44:02.586Z,47.30
2023-04-11T12:49:06.333Z,46.29
2023-04-11T12:54:09.233Z,45.90
2023-04-11T12:59:12.140Z,46.67
2023-04-11T13:04:15.492Z,46.73
2023-04-11T13:09:18.766Z,46.19
2023-04-11T13:14:21.673Z,45.42
2023-04-11T13:19:24.881Z,46.02
2023-04-11T13:24:27.903Z,45.96
2023-04-11T13:29:30.798Z,44.91
2023-04-11T13:34:34.278Z,44.91
2023-04-11T13:39:37.111Z,45.46
2023-04-11T13:44:40.020Z,45.53
2023-04-11T13:49:42.920Z,45.44
2023-04-11T13:54:46.039Z,45.37
2023-04-11T13:59:48.916Z,45.30
2023-04-11T14:04:52.273Z,45.10
2023-04-11T14:09:54.995Z,45.69
2023-04-11T14:14:57.851Z,44.96
2023-04-11T14:20:01.058Z,44.13
2023-04-11T14:25:06.925Z,44.59
2023-04-11T14:30:12.274Z,44.73
2023-04-11T14:35:15.707Z,45.02
2023-04-11T14:40:18.601Z,45.85
2023-04-11T14:45:21.438Z,45.55
2023-04-11T14:50:25.048Z,45.98
2023-04-11T14:55:28.935Z,46.21
2023-04-11T15:00:37.934Z,46.12
2023-04-11T15:05:51.695Z,45.86
2023-04-11T15:10:54.844Z,46.34
2023-04-11T15:16:04.428Z,45.21
2023-04-11T15:21:07.905Z,44.49
2023-04-11T15:26:11.368Z,43.76
2023-04-11T15:31:25.377Z,44.22
2023-04-11T15:36:29.078Z,42.79
2023-04-11T15:41:32.153Z,42.33
2023-04-11T15:46:34.990Z,41.27
2023-04-11T15:51:38.368Z,41.71
2023-04-11T15:56:41.274Z,42.66
2023-04-11T16:01:46.160Z,42.35
2023-04-11T16:06:49.337Z,43.01
2023-04-11T16:11:52.235Z,43.55
2023-04-11T16:16:55.940Z,43.85
2023-04-11T16:21:58.866Z,43.86
2023-04-11T16:27:02.902Z,44.02
2023-04-11T16:32:06.450Z,44.54
2023-04-11T16:37:09.520Z,44.73
2023-04-11T16:42:12.223Z,45.30
2023-04-11T16:47:15.101Z,46.11
2023-04-11T16:52:18.131Z,46.97
2023-04-11T16:57:20.932Z,47.35
2023-04-11T17:02:23.917Z,47.40
2023-04-11T17:07:28.582Z,48.37
2023-04-11T17:12:31.941Z,49.02
2023-04-11T17:17:34.907Z,49.42
2023-04-11T17:22:41.462Z,49.96
2023-04-11T17:27:44.392Z,50.55
2023-04-11T17:32:48.804Z,50.60
2023-04-11T17:37:52.364Z,51.30
2023-04-11T17:42:57.708Z,51.60
2023-04-11T17:48:01.453Z,52.25
2023-04-11T17:53:05.069Z,52.71
2023-04-11T17:58:08.071Z,52.75
2023-04-11T18:03:11.651Z,52.91
2023-04-11T18:08:14.854Z,53.95
2023-04-11T18:13:17.696Z,54.16
2023-04-11T18:18:20.597Z,55.43
2023-04-11T18:23:23.604Z,54.79
2023-04-11T18:28:26.405Z,54.47
2023-04-11T18:33:29.466Z,54.20
2023-04-11T18:38:32.417Z,55.42
2023-04-11T18:43:35.651Z,54.62
2023-04-11T18:48:38.595Z,55.72
2023-04-11T18:53:41.945Z,56.08
2023-04-11T18:58:46.657Z,55.92
2023-04-11T19:03:54.748Z,56.14
2023-04-11T19:08:58.028Z,58.01
2023-04-11T19:14:01.555Z,56.99
2023-04-11T19:19:04.454Z,57.74
2023-04-11T19:24:08.602Z,58.24
2023-04-11T19:29:11.788Z,58.04
2023-04-11T19:34:15.512Z,57.78
2023-04-11T19:39:18.928Z,57.19
2023-04-11T19:44:22.461Z,60.46
2023-04-11T19:49:25.359Z,61.40
2023-04-11T19:54:28.246Z,60.69
2023-04-11T19:59:31.061Z,60.41
2023-04-11T20:04:33.968Z,60.79
2023-04-11T20:09:36.859Z,62.22
2023-04-11T20:14:39.869Z,57.52
2023-04-11T20:19:44.514Z,56.83
2023-04-11T20:24:48.220Z,57.56
2023-04-11T20:29:50.973Z,63.51
2023-04-11T20:34:53.973Z,60.25
2023-04-11T20:39:57.734Z,53.46
2023-04-11T20:45:10.137Z,56.50
2023-04-11T20:50:14.625Z,60.22
2023-04-11T20:55:18.251Z,61.88
2023-04-11T21:00:21.152Z,68.36
2023-04-11T21:05:25.225Z,57.11
2023-04-11T21:10:28.293Z,54.80
2023-04-11T21:15:31.341Z,58.65
2023-04-11T21:20:34.712Z,61.23
2023-04-11T21:25:38.140Z,67.53
2023-04-11T21:30:42.670Z,56.34
2023-04-11T21:35:45.697Z,55.40
2023-04-11T21:40:48.683Z,58.91
2023-04-11T21:45:51.486Z,60.82
2023-04-11T21:50:54.805Z,68.49
2023-04-11T21:55:57.710Z,61.42
2023-04-11T22:01:01.891Z,55.27
2023-04-11T22:06:05.226Z,58.96
2023-04-11T22:11:14.385Z,65.94
2023-04-11T22:16:17.218Z,56.46
2023-04-11T22:21:20.525Z,56.69
2023-04-11T22:26:34.693Z,59.91
2023-04-11T22:31:39.011Z,64.03
2023-04-11T22:36:42.134Z,62.97
2023-04-11T22:41:47.895Z,56.09
2023-04-11T22:47:06.225Z,60.98
2023-04-11T22:52:14.180Z,68.43
2023-04-11T22:57:16.987Z,57.44
2023-04-11T23:02:19.971Z,56.87
2023-04-11T23:07:25.412Z,61.44
2023-04-11T23:12:31.985Z,67.48
2023-04-11T23:17:34.958Z,56.53
2023-04-11T23:22:37.856Z,57.89
2023-04-11T23:27:43.621Z,61.38
2023-04-11T23:32:47.268Z,60.22
2023-04-11T23:37:51.061Z,72.82
2023-04-11T23:42:53.968Z,63.04
2023-04-11T23:47:57.538Z,56.21
2023-04-11T23:53:00.694Z,59.48
2023-04-11T23:58:04.323Z,67.63
